sensor_id;sensor_type;location;lat;lon;timestamp;P1;durP1;ratioP1;P2;durP2;ratioP2
50781;SDS011;36749;37.428;-121.972;2023-12-07T00:01:12;1.23;;;0.90;;
50781;SDS011;36749;37.428;-121.972;2023-12-07T00:03:38;1.60;;;1.35;;
50781;SDS011;36749;37.428;-121.972;2023-12-07T00:06:04;3.58;;;1.10;;
50781;SDS011;36749;37.428;-121.972;2023-12-07T00:08:30;1.50;;;1.00;;
50781;SDS011;36749;37.428;-121.972;2023-12-07T00:10:57;1.10;;;1.00;;
50781;SDS011;36749;37.428;-121.972;2023-12-07T00:13:23;2.90;;;1.10;;
50781;SDS011;36749;37.428;-121.972;2023-12-07T00:15:49;4.15;;;1.40;;
50781;SDS011;36749;37.428;-121.972;2023-12-07T00:18:15;1.73;;;0.70;;
50781;SDS011;36749;37.428;-121.972;2023-12-07T00:20:41;2.35;;;1.40;;
50781;SDS011;36749;37.428;-121.972;2023-12-07T00:23:07;3.03;;;1.27;;
50781;SDS011;36749;37.428;-121.972;2023-12-07T00:25:33;1.70;;;1.00;;
50781;SDS011;36749;37.428;-121.972;2023-12-07T00:28:00;1.73;;;1.05;;
50781;SDS011;36749;37.428;-121.972;2023-12-07T00:30:26;1.75;;;0.90;;
50781;SDS011;36749;37.428;-121.972;2023-12-07T00:32:52;2.00;;;1.00;;
50781;SDS011;36749;37.428;-121.972;2023-12-07T00:35:18;0.90;;;0.90;;
50781;SDS011;36749;37.428;-121.972;2023-12-07T00:37:47;3.45;;;1.20;;
50781;SDS011;36749;37.428;-121.972;2023-12-07T00:40:14;2.97;;;1.20;;
50781;SDS011;36749;37.428;-121.972;2023-12-07T00:42:40;1.08;;;1.00;;
50781;SDS011;36749;37.428;-121.972;2023-12-07T00:45:07;1.80;;;1.10;;
50781;SDS011;36749;37.428;-121.972;2023-12-07T00:47:34;0.75;;;0.65;;
50781;SDS011;36749;37.428;-121.972;2023-12-07T00:50:00;2.17;;;0.93;;
50781;SDS011;36749;37.428;-121.972;2023-12-07T00:52:27;0.73;;;0.73;;
50781;SDS011;36749;37.428;-121.972;2023-12-07T00:54:54;1.10;;;1.00;;
50781;SDS011;36749;37.428;-121.972;2023-12-07T00:57:20;1.88;;;0.70;;
50781;SDS011;36749;37.428;-121.972;2023-12-07T00:59:47;2.03;;;1.13;;
50781;SDS011;36749;37.428;-121.972;2023-12-07T01:02:14;1.30;;;0.98;;
50781;SDS011;36749;37.428;-121.972;2023-12-07T01:04:41;2.17;;;0.70;;
50781;SDS011;36749;37.428;-121.972;2023-12-07T01:07:09;1.70;;;0.90;;
50781;SDS011;36749;37.428;-121.972;2023-12-07T01:09:36;1.40;;;0.88;;
50781;SDS011;36749;37.428;-121.972;2023-12-07T01:12:05;1.45;;;0.93;;
50781;SDS011;36749;37.428;-121.972;2023-12-07T01:14:33;0.68;;;0.68;;
50781;SDS011;36749;37.428;-121.972;2023-12-07T01:17:00;3.15;;;0.90;;
50781;SDS011;36749;37.428;-121.972;2023-12-07T01:19:31;0.65;;;0.65;;
50781;SDS011;36749;37.428;-121.972;2023-12-07T01:21:57;1.85;;;0.90;;
50781;SDS011;36749;37.428;-121.972;2023-12-07T01:24:24;0.88;;;0.80;;
50781;SDS011;36749;37.428;-121.972;2023-12-07T01:26:52;2.85;;;1.00;;
50781;SDS011;36749;37.428;-121.972;2023-12-07T01:29:22;1.30;;;0.80;;
50781;SDS011;36749;37.428;-121.972;2023-12-07T01:31:49;2.47;;;0.80;;
50781;SDS011;36749;37.428;-121.972;2023-12-07T01:34:17;1.40;;;0.75;;
50781;SDS011;36749;37.428;-121.972;2023-12-07T01:36:44;1.40;;;0.80;;
50781;SDS011;36749;37.428;-121.972;2023-12-07T01:39:11;1.40;;;0.60;;
50781;SDS011;36749;37.428;-121.972;2023-12-07T01:41:38;6.15;;;1.23;;
50781;SDS011;36749;37.428;-121.972;2023-12-07T01:44:06;2.78;;;1.10;;
50781;SDS011;36749;37.428;-121.972;2023-12-07T01:46:33;3.75;;;1.17;;
50781;SDS011;36749;37.428;-121.972;2023-12-07T01:49:01;5.93;;;1.38;;
50781;SDS011;36749;37.428;-121.972;2023-12-07T01:51:47;13.88;;;2.22;;
50781;SDS011;36749;37.428;-121.972;2023-12-07T01:54:13;9.45;;;1.60;;
50781;SDS011;36749;37.428;-121.972;2023-12-07T01:56:40;7.78;;;1.33;;
50781;SDS011;36749;37.428;-121.972;2023-12-07T01:59:07;7.20;;;1.70;;
50781;SDS011;36749;37.428;-121.972;2023-12-07T02:01:33;8.45;;;1.58;;
50781;SDS011;36749;37.428;-121.972;2023-12-07T02:04:00;7.20;;;1.40;;
50781;SDS011;36749;37.428;-121.972;2023-12-07T02:06:26;6.97;;;1.63;;
50781;SDS011;36749;37.428;-121.972;2023-12-07T02:08:53;7.60;;;1.33;;
50781;SDS011;36749;37.428;-121.972;2023-12-07T02:11:20;8.05;;;1.80;;
50781;SDS011;36749;37.428;-121.972;2023-12-07T02:13:46;6.90;;;1.70;;
50781;SDS011;36749;37.428;-121.972;2023-12-07T02:17:00;4.95;;;1.50;;
50781;SDS011;36749;37.428;-121.972;2023-12-07T02:19:18;8.90;;;2.00;;
50781;SDS011;36749;37.428;-121.972;2023-12-07T02:22:07;10.45;;;1.88;;
50781;SDS011;36749;37.428;-121.972;2023-12-07T02:24:38;10.73;;;1.77;;
50781;SDS011;36749;37.428;-121.972;2023-12-07T02:27:13;7.30;;;1.73;;
50781;SDS011;36749;37.428;-121.972;2023-12-07T02:29:39;8.40;;;2.08;;
50781;SDS011;36749;37.428;-121.972;2023-12-07T02:32:06;5.97;;;1.35;;
50781;SDS011;36749;37.428;-121.972;2023-12-07T02:34:32;7.70;;;2.35;;
50781;SDS011;36749;37.428;-121.972;2023-12-07T02:36:58;9.18;;;2.28;;
50781;SDS011;36749;37.428;-121.972;2023-12-07T02:39:24;7.80;;;1.88;;
50781;SDS011;36749;37.428;-121.972;2023-12-07T02:41:51;9.48;;;2.22;;
50781;SDS011;36749;37.428;-121.972;2023-12-07T02:44:18;10.13;;;2.00;;
50781;SDS011;36749;37.428;-121.972;2023-12-07T02:46:45;9.43;;;2.50;;
50781;SDS011;36749;37.428;-121.972;2023-12-07T02:49:11;7.32;;;1.90;;
50781;SDS011;36749;37.428;-121.972;2023-12-07T02:51:37;7.57;;;2.15;;
50781;SDS011;36749;37.428;-121.972;2023-12-07T02:54:04;7.85;;;2.05;;
50781;SDS011;36749;37.428;-121.972;2023-12-07T02:56:34;12.73;;;2.75;;
50781;SDS011;36749;37.428;-121.972;2023-12-07T02:59:00;6.43;;;1.83;;
50781;SDS011;36749;37.428;-121.972;2023-12-07T03:01:26;8.02;;;2.38;;
50781;SDS011;36749;37.428;-121.972;2023-12-07T03:03:52;10.35;;;2.00;;
50781;SDS011;36749;37.428;-121.972;2023-12-07T03:06:19;7.72;;;1.77;;
50781;SDS011;36749;37.428;-121.972;2023-12-07T03:08:45;7.75;;;1.77;;
50781;SDS011;36749;37.428;-121.972;2023-12-07T03:11:11;13.10;;;2.20;;
50781;SDS011;36749;37.428;-121.972;2023-12-07T03:13:37;6.35;;;1.98;;
50781;SDS011;36749;37.428;-121.972;2023-12-07T03:16:06;4.28;;;2.15;;
50781;SDS011;36749;37.428;-121.972;2023-12-07T03:18:35;10.48;;;2.60;;
50781;SDS011;36749;37.428;-121.972;2023-12-07T03:21:03;9.85;;;2.45;;
50781;SDS011;36749;37.428;-121.972;2023-12-07T03:23:30;11.25;;;3.28;;
50781;SDS011;36749;37.428;-121.972;2023-12-07T03:25:57;12.68;;;2.70;;
50781;SDS011;36749;37.428;-121.972;2023-12-07T03:28:24;7.00;;;1.67;;
50781;SDS011;36749;37.428;-121.972;2023-12-07T03:30:50;5.10;;;1.98;;
50781;SDS011;36749;37.428;-121.972;2023-12-07T03:33:17;10.95;;;1.88;;
50781;SDS011;36749;37.428;-121.972;2023-12-07T03:35:43;12.80;;;2.40;;
50781;SDS011;36749;37.428;-121.972;2023-12-07T03:38:09;7.22;;;2.13;;
50781;SDS011;36749;37.428;-121.972;2023-12-07T03:40:35;8.02;;;2.65;;
50781;SDS011;36749;37.428;-121.972;2023-12-07T03:43:01;10.23;;;2.72;;
50781;SDS011;36749;37.428;-121.972;2023-12-07T03:45:29;9.60;;;2.50;;
50781;SDS011;36749;37.428;-121.972;2023-12-07T03:47:55;10.18;;;2.35;;
50781;SDS011;36749;37.428;-121.972;2023-12-07T03:50:22;6.80;;;2.50;;
50781;SDS011;36749;37.428;-121.972;2023-12-07T03:52:48;9.25;;;2.58;;
50781;SDS011;36749;37.428;-121.972;2023-12-07T03:55:14;10.55;;;3.00;;
50781;SDS011;36749;37.428;-121.972;2023-12-07T03:57:40;8.75;;;2.55;;
50781;SDS011;36749;37.428;-121.972;2023-12-07T04:00:07;12.05;;;2.88;;
50781;SDS011;36749;37.428;-121.972;2023-12-07T04:02:36;7.72;;;2.30;;
50781;SDS011;36749;37.428;-121.972;2023-12-07T04:05:02;9.63;;;1.80;;
50781;SDS011;36749;37.428;-121.972;2023-12-07T04:07:28;9.45;;;2.63;;
50781;SDS011;36749;37.428;-121.972;2023-12-07T04:09:55;11.02;;;2.85;;
50781;SDS011;36749;37.428;-121.972;2023-12-07T04:12:22;5.70;;;2.42;;
50781;SDS011;36749;37.428;-121.972;2023-12-07T04:14:52;10.60;;;3.78;;
50781;SDS011;36749;37.428;-121.972;2023-12-07T04:17:18;9.50;;;3.40;;
50781;SDS011;36749;37.428;-121.972;2023-12-07T04:19:44;9.07;;;2.80;;
50781;SDS011;36749;37.428;-121.972;2023-12-07T04:22:11;7.97;;;2.53;;
50781;SDS011;36749;37.428;-121.972;2023-12-07T04:24:37;8.82;;;2.67;;
50781;SDS011;36749;37.428;-121.972;2023-12-07T04:27:03;11.88;;;2.85;;
50781;SDS011;36749;37.428;-121.972;2023-12-07T04:29:30;8.70;;;2.45;;
50781;SDS011;36749;37.428;-121.972;2023-12-07T04:31:57;8.55;;;2.38;;
50781;SDS011;36749;37.428;-121.972;2023-12-07T04:34:24;11.55;;;2.50;;
50781;SDS011;36749;37.428;-121.972;2023-12-07T04:36:51;8.40;;;2.40;;
50781;SDS011;36749;37.428;-121.972;2023-12-07T04:39:17;9.27;;;2.40;;
50781;SDS011;36749;37.428;-121.972;2023-12-07T04:41:44;13.55;;;3.63;;
50781;SDS011;36749;37.428;-121.972;2023-12-07T04:44:11;9.07;;;3.03;;
50781;SDS011;36749;37.428;-121.972;2023-12-07T04:46:41;7.70;;;2.42;;
50781;SDS011;36749;37.428;-121.972;2023-12-07T04:49:08;10.98;;;3.15;;
50781;SDS011;36749;37.428;-121.972;2023-12-07T04:51:34;11.30;;;2.97;;
50781;SDS011;36749;37.428;-121.972;2023-12-07T04:54:02;10.60;;;3.22;;
50781;SDS011;36749;37.428;-121.972;2023-12-07T04:56:28;9.85;;;3.15;;
50781;SDS011;36749;37.428;-121.972;2023-12-07T04:58:54;14.73;;;2.70;;
50781;SDS011;36749;37.428;-121.972;2023-12-07T05:01:20;9.38;;;2.90;;
50781;SDS011;36749;37.428;-121.972;2023-12-07T05:03:47;9.25;;;3.13;;
50781;SDS011;36749;37.428;-121.972;2023-12-07T05:06:13;9.98;;;2.70;;
50781;SDS011;36749;37.428;-121.972;2023-12-07T05:08:40;8.00;;;2.70;;
50781;SDS011;36749;37.428;-121.972;2023-12-07T05:11:06;9.00;;;2.92;;
50781;SDS011;36749;37.428;-121.972;2023-12-07T05:13:32;6.70;;;2.25;;
50781;SDS011;36749;37.428;-121.972;2023-12-07T05:15:59;9.07;;;3.17;;
50781;SDS011;36749;37.428;-121.972;2023-12-07T05:18:25;14.75;;;3.15;;
50781;SDS011;36749;37.428;-121.972;2023-12-07T05:20:51;13.80;;;3.08;;
50781;SDS011;36749;37.428;-121.972;2023-12-07T05:23:17;12.63;;;3.42;;
50781;SDS011;36749;37.428;-121.972;2023-12-07T05:25:43;11.90;;;3.42;;
50781;SDS011;36749;37.428;-121.972;2023-12-07T05:28:10;12.00;;;3.55;;
50781;SDS011;36749;37.428;-121.972;2023-12-07T05:30:36;13.93;;;2.97;;
50781;SDS011;36749;37.428;-121.972;2023-12-07T05:33:02;12.93;;;3.47;;
50781;SDS011;36749;37.428;-121.972;2023-12-07T05:35:29;11.05;;;3.53;;
50781;SDS011;36749;37.428;-121.972;2023-12-07T05:37:55;11.73;;;3.50;;
50781;SDS011;36749;37.428;-121.972;2023-12-07T05:40:21;12.23;;;3.88;;
50781;SDS011;36749;37.428;-121.972;2023-12-07T05:42:49;12.10;;;3.20;;
50781;SDS011;36749;37.428;-121.972;2023-12-07T05:45:15;11.55;;;3.78;;
50781;SDS011;36749;37.428;-121.972;2023-12-07T05:47:42;12.57;;;4.10;;
50781;SDS011;36749;37.428;-121.972;2023-12-07T05:50:08;12.32;;;4.05;;
50781;SDS011;36749;37.428;-121.972;2023-12-07T05:52:35;15.23;;;4.63;;
50781;SDS011;36749;37.428;-121.972;2023-12-07T05:55:01;18.02;;;3.95;;
50781;SDS011;36749;37.428;-121.972;2023-12-07T05:57:27;10.88;;;4.55;;
50781;SDS011;36749;37.428;-121.972;2023-12-07T05:59:53;13.02;;;4.30;;
50781;SDS011;36749;37.428;-121.972;2023-12-07T06:02:20;17.33;;;4.95;;
50781;SDS011;36749;37.428;-121.972;2023-12-07T06:04:46;12.50;;;4.15;;
50781;SDS011;36749;37.428;-121.972;2023-12-07T06:07:12;15.70;;;4.00;;
50781;SDS011;36749;37.428;-121.972;2023-12-07T06:09:39;15.35;;;4.78;;
50781;SDS011;36749;37.428;-121.972;2023-12-07T06:12:05;11.20;;;3.72;;
50781;SDS011;36749;37.428;-121.972;2023-12-07T06:14:31;10.50;;;4.18;;
50781;SDS011;36749;37.428;-121.972;2023-12-07T06:16:58;11.15;;;3.45;;
50781;SDS011;36749;37.428;-121.972;2023-12-07T06:19:26;11.88;;;4.13;;
50781;SDS011;36749;37.428;-121.972;2023-12-07T06:21:53;12.50;;;3.97;;
50781;SDS011;36749;37.428;-121.972;2023-12-07T06:24:19;10.40;;;3.90;;
50781;SDS011;36749;37.428;-121.972;2023-12-07T06:26:48;11.80;;;3.70;;
50781;SDS011;36749;37.428;-121.972;2023-12-07T06:29:14;13.70;;;3.78;;
50781;SDS011;36749;37.428;-121.972;2023-12-07T06:31:44;12.25;;;4.13;;
50781;SDS011;36749;37.428;-121.972;2023-12-07T06:34:10;9.98;;;3.50;;
50781;SDS011;36749;37.428;-121.972;2023-12-07T06:36:36;17.23;;;4.20;;
50781;SDS011;36749;37.428;-121.972;2023-12-07T06:39:02;8.25;;;3.58;;
50781;SDS011;36749;37.428;-121.972;2023-12-07T06:41:29;10.88;;;3.38;;
50781;SDS011;36749;37.428;-121.972;2023-12-07T06:43:55;11.15;;;3.83;;
50781;SDS011;36749;37.428;-121.972;2023-12-07T06:46:21;10.27;;;2.78;;
50781;SDS011;36749;37.428;-121.972;2023-12-07T06:48:47;13.30;;;3.58;;
50781;SDS011;36749;37.428;-121.972;2023-12-07T06:51:13;10.15;;;3.15;;
50781;SDS011;36749;37.428;-121.972;2023-12-07T06:53:40;7.57;;;3.30;;
50781;SDS011;36749;37.428;-121.972;2023-12-07T06:56:07;12.43;;;3.55;;
50781;SDS011;36749;37.428;-121.972;2023-12-07T06:58:34;12.70;;;3.42;;
50781;SDS011;36749;37.428;-121.972;2023-12-07T07:01:00;8.10;;;3.00;;
50781;SDS011;36749;37.428;-121.972;2023-12-07T07:03:26;9.50;;;3.15;;
50781;SDS011;36749;37.428;-121.972;2023-12-07T07:05:53;10.00;;;3.63;;
50781;SDS011;36749;37.428;-121.972;2023-12-07T07:08:20;13.13;;;3.90;;
50781;SDS011;36749;37.428;-121.972;2023-12-07T07:10:46;11.10;;;3.97;;
50781;SDS011;36749;37.428;-121.972;2023-12-07T07:13:12;10.80;;;3.45;;
50781;SDS011;36749;37.428;-121.972;2023-12-07T07:15:41;10.50;;;3.67;;
50781;SDS011;36749;37.428;-121.972;2023-12-07T07:18:11;11.60;;;2.85;;
50781;SDS011;36749;37.428;-121.972;2023-12-07T07:20:37;9.88;;;3.85;;
50781;SDS011;36749;37.428;-121.972;2023-12-07T07:23:03;11.77;;;3.67;;
50781;SDS011;36749;37.428;-121.972;2023-12-07T07:25:29;15.60;;;3.72;;
50781;SDS011;36749;37.428;-121.972;2023-12-07T07:27:56;12.07;;;3.40;;
50781;SDS011;36749;37.428;-121.972;2023-12-07T07:30:22;12.25;;;3.55;;
50781;SDS011;36749;37.428;-121.972;2023-12-07T07:32:48;11.45;;;3.97;;
50781;SDS011;36749;37.428;-121.972;2023-12-07T07:35:15;13.20;;;4.28;;
50781;SDS011;36749;37.428;-121.972;2023-12-07T07:37:41;14.73;;;5.18;;
50781;SDS011;36749;37.428;-121.972;2023-12-07T07:40:09;13.40;;;5.45;;
50781;SDS011;36749;37.428;-121.972;2023-12-07T07:42:39;14.23;;;5.53;;
50781;SDS011;36749;37.428;-121.972;2023-12-07T07:45:09;23.65;;;6.55;;
50781;SDS011;36749;37.428;-121.972;2023-12-07T07:47:35;16.00;;;6.57;;
50781;SDS011;36749;37.428;-121.972;2023-12-07T07:50:02;17.67;;;6.63;;
50781;SDS011;36749;37.428;-121.972;2023-12-07T07:52:31;17.80;;;6.13;;
50781;SDS011;36749;37.428;-121.972;2023-12-07T07:55:01;15.32;;;6.38;;
50781;SDS011;36749;37.428;-121.972;2023-12-07T07:57:29;18.92;;;6.32;;
50781;SDS011;36749;37.428;-121.972;2023-12-07T07:59:56;13.20;;;4.93;;
50781;SDS011;36749;37.428;-121.972;2023-12-07T08:02:23;12.75;;;5.78;;
50781;SDS011;36749;37.428;-121.972;2023-12-07T08:04:49;17.27;;;5.60;;
50781;SDS011;36749;37.428;-121.972;2023-12-07T08:07:17;10.95;;;4.57;;
50781;SDS011;36749;37.428;-121.972;2023-12-07T08:09:43;13.68;;;4.82;;
50781;SDS011;36749;37.428;-121.972;2023-12-07T08:12:09;15.80;;;5.43;;
50781;SDS011;36749;37.428;-121.972;2023-12-07T08:14:35;13.70;;;4.38;;
50781;SDS011;36749;37.428;-121.972;2023-12-07T08:17:03;16.25;;;4.13;;
50781;SDS011;36749;37.428;-121.972;2023-12-07T08:19:29;17.13;;;4.93;;
50781;SDS011;36749;37.428;-121.972;2023-12-07T08:21:55;11.20;;;4.53;;
50781;SDS011;36749;37.428;-121.972;2023-12-07T08:24:22;12.90;;;4.65;;
50781;SDS011;36749;37.428;-121.972;2023-12-07T08:26:48;13.00;;;3.88;;
50781;SDS011;36749;37.428;-121.972;2023-12-07T08:29:14;13.80;;;4.10;;
50781;SDS011;36749;37.428;-121.972;2023-12-07T08:31:40;10.85;;;3.40;;
50781;SDS011;36749;37.428;-121.972;2023-12-07T08:34:06;14.13;;;3.80;;
50781;SDS011;36749;37.428;-121.972;2023-12-07T08:36:32;10.00;;;3.53;;
50781;SDS011;36749;37.428;-121.972;2023-12-07T08:38:59;10.63;;;4.13;;
50781;SDS011;36749;37.428;-121.972;2023-12-07T08:41:25;5.38;;;2.78;;
50781;SDS011;36749;37.428;-121.972;2023-12-07T08:43:51;13.65;;;3.50;;
50781;SDS011;36749;37.428;-121.972;2023-12-07T08:46:17;9.75;;;3.58;;
50781;SDS011;36749;37.428;-121.972;2023-12-07T08:48:46;15.43;;;4.78;;
50781;SDS011;36749;37.428;-121.972;2023-12-07T08:51:12;14.90;;;4.47;;
50781;SDS011;36749;37.428;-121.972;2023-12-07T08:53:39;13.60;;;5.13;;
50781;SDS011;36749;37.428;-121.972;2023-12-07T08:56:05;13.43;;;4.20;;
50781;SDS011;36749;37.428;-121.972;2023-12-07T08:58:33;12.00;;;4.35;;
50781;SDS011;36749;37.428;-121.972;2023-12-07T09:00:59;12.82;;;4.80;;
50781;SDS011;36749;37.428;-121.972;2023-12-07T09:03:25;17.25;;;4.90;;
50781;SDS011;36749;37.428;-121.972;2023-12-07T09:05:56;10.15;;;4.13;;
50781;SDS011;36749;37.428;-121.972;2023-12-07T09:08:23;14.23;;;4.70;;
50781;SDS011;36749;37.428;-121.972;2023-12-07T09:10:49;11.27;;;4.30;;
50781;SDS011;36749;37.428;-121.972;2023-12-07T09:13:16;11.23;;;4.18;;
50781;SDS011;36749;37.428;-121.972;2023-12-07T09:15:43;13.18;;;4.75;;
50781;SDS011;36749;37.428;-121.972;2023-12-07T09:18:09;12.63;;;4.82;;
50781;SDS011;36749;37.428;-121.972;2023-12-07T09:20:39;12.77;;;4.30;;
50781;SDS011;36749;37.428;-121.972;2023-12-07T09:23:11;14.50;;;5.25;;
50781;SDS011;36749;37.428;-121.972;2023-12-07T09:25:41;10.00;;;4.05;;
50781;SDS011;36749;37.428;-121.972;2023-12-07T09:28:08;11.63;;;3.85;;
50781;SDS011;36749;37.428;-121.972;2023-12-07T09:30:34;11.85;;;4.20;;
50781;SDS011;36749;37.428;-121.972;2023-12-07T09:33:00;12.40;;;3.40;;
50781;SDS011;36749;37.428;-121.972;2023-12-07T09:35:30;11.73;;;4.82;;
50781;SDS011;36749;37.428;-121.972;2023-12-07T09:37:56;9.52;;;3.47;;
50781;SDS011;36749;37.428;-121.972;2023-12-07T09:40:23;7.70;;;3.53;;
50781;SDS011;36749;37.428;-121.972;2023-12-07T09:42:50;16.70;;;4.18;;
50781;SDS011;36749;37.428;-121.972;2023-12-07T09:45:18;15.35;;;3.85;;
50781;SDS011;36749;37.428;-121.972;2023-12-07T09:47:53;12.82;;;3.72;;
50781;SDS011;36749;37.428;-121.972;2023-12-07T09:50:20;16.02;;;3.95;;
50781;SDS011;36749;37.428;-121.972;2023-12-07T09:52:48;7.22;;;3.38;;
50781;SDS011;36749;37.428;-121.972;2023-12-07T09:55:16;7.90;;;3.13;;
50781;SDS011;36749;37.428;-121.972;2023-12-07T09:57:43;8.95;;;4.40;;
50781;SDS011;36749;37.428;-121.972;2023-12-07T10:00:30;11.77;;;3.17;;
50781;SDS011;36749;37.428;-121.972;2023-12-07T10:02:56;13.60;;;3.60;;
50781;SDS011;36749;37.428;-121.972;2023-12-07T10:05:22;13.15;;;3.90;;
50781;SDS011;36749;37.428;-121.972;2023-12-07T10:07:49;12.23;;;3.08;;
50781;SDS011;36749;37.428;-121.972;2023-12-07T10:10:16;8.48;;;2.90;;
50781;SDS011;36749;37.428;-121.972;2023-12-07T10:12:53;9.38;;;3.72;;
50781;SDS011;36749;37.428;-121.972;2023-12-07T10:15:21;10.88;;;3.55;;
50781;SDS011;36749;37.428;-121.972;2023-12-07T10:17:55;9.18;;;2.78;;
50781;SDS011;36749;37.428;-121.972;2023-12-07T10:20:28;11.23;;;4.10;;
50781;SDS011;36749;37.428;-121.972;2023-12-07T10:23:04;13.70;;;4.20;;
50781;SDS011;36749;37.428;-121.972;2023-12-07T10:25:41;15.50;;;4.00;;
50781;SDS011;36749;37.428;-121.972;2023-12-07T10:28:08;12.93;;;3.58;;
50781;SDS011;36749;37.428;-121.972;2023-12-07T10:30:39;8.90;;;3.70;;
50781;SDS011;36749;37.428;-121.972;2023-12-07T10:33:07;7.65;;;3.35;;
50781;SDS011;36749;37.428;-121.972;2023-12-07T10:35:37;10.38;;;3.75;;
50781;SDS011;36749;37.428;-121.972;2023-12-07T10:38:10;10.48;;;4.15;;
50781;SDS011;36749;37.428;-121.972;2023-12-07T10:40:38;14.60;;;4.78;;
50781;SDS011;36749;37.428;-121.972;2023-12-07T10:43:05;13.18;;;4.68;;
50781;SDS011;36749;37.428;-121.972;2023-12-07T10:45:32;13.73;;;4.03;;
50781;SDS011;36749;37.428;-121.972;2023-12-07T10:48:06;10.07;;;3.72;;
50781;SDS011;36749;37.428;-121.972;2023-12-07T10:50:42;8.85;;;4.20;;
50781;SDS011;36749;37.428;-121.972;2023-12-07T10:53:18;13.10;;;4.32;;
50781;SDS011;36749;37.428;-121.972;2023-12-07T10:55:56;11.52;;;4.03;;
50781;SDS011;36749;37.428;-121.972;2023-12-07T10:58:24;10.77;;;3.67;;
50781;SDS011;36749;37.428;-121.972;2023-12-07T11:00:51;10.38;;;3.85;;
50781;SDS011;36749;37.428;-121.972;2023-12-07T11:03:18;11.27;;;4.05;;
50781;SDS011;36749;37.428;-121.972;2023-12-07T11:05:49;9.48;;;3.80;;
50781;SDS011;36749;37.428;-121.972;2023-12-07T11:13:45;10.80;;;3.88;;
50781;SDS011;36749;37.428;-121.972;2023-12-07T11:16:15;12.73;;;3.85;;
50781;SDS011;36749;37.428;-121.972;2023-12-07T11:18:42;9.68;;;3.33;;
50781;SDS011;36749;37.428;-121.972;2023-12-07T11:21:08;7.88;;;3.03;;
50781;SDS011;36749;37.428;-121.972;2023-12-07T11:23:34;10.38;;;3.38;;
50781;SDS011;36749;37.428;-121.972;2023-12-07T11:26:02;10.93;;;4.15;;
50781;SDS011;36749;37.428;-121.972;2023-12-07T11:28:38;11.40;;;3.17;;
50781;SDS011;36749;37.428;-121.972;2023-12-07T11:31:08;12.35;;;3.00;;
50781;SDS011;36749;37.428;-121.972;2023-12-07T11:33:37;15.80;;;3.25;;
50781;SDS011;36749;37.428;-121.972;2023-12-07T11:36:05;15.05;;;4.57;;
50781;SDS011;36749;37.428;-121.972;2023-12-07T11:38:32;8.68;;;3.22;;
50781;SDS011;36749;37.428;-121.972;2023-12-07T11:40:59;15.07;;;3.45;;
50781;SDS011;36749;37.428;-121.972;2023-12-07T11:45:58;15.35;;;3.40;;
50781;SDS011;36749;37.428;-121.972;2023-12-07T11:48:25;13.60;;;4.25;;
50781;SDS011;36749;37.428;-121.972;2023-12-07T11:50:58;10.15;;;3.58;;
50781;SDS011;36749;37.428;-121.972;2023-12-07T11:53:27;10.48;;;4.22;;
50781;SDS011;36749;37.428;-121.972;2023-12-07T11:55:55;14.05;;;3.80;;
50781;SDS011;36749;37.428;-121.972;2023-12-07T11:58:26;13.23;;;4.18;;
50781;SDS011;36749;37.428;-121.972;2023-12-07T12:00:53;13.25;;;4.40;;
50781;SDS011;36749;37.428;-121.972;2023-12-07T12:03:22;13.02;;;3.97;;
50781;SDS011;36749;37.428;-121.972;2023-12-07T12:05:48;11.90;;;3.75;;
50781;SDS011;36749;37.428;-121.972;2023-12-07T12:08:15;14.45;;;4.78;;
50781;SDS011;36749;37.428;-121.972;2023-12-07T12:10:45;10.15;;;3.97;;
50781;SDS011;36749;37.428;-121.972;2023-12-07T12:13:12;8.98;;;3.60;;
50781;SDS011;36749;37.428;-121.972;2023-12-07T12:15:39;13.52;;;3.65;;
50781;SDS011;36749;37.428;-121.972;2023-12-07T12:18:05;13.98;;;4.00;;
50781;SDS011;36749;37.428;-121.972;2023-12-07T12:20:32;9.70;;;3.67;;
50781;SDS011;36749;37.428;-121.972;2023-12-07T12:22:58;11.13;;;3.10;;
50781;SDS011;36749;37.428;-121.972;2023-12-07T12:25:28;11.75;;;4.03;;
50781;SDS011;36749;37.428;-121.972;2023-12-07T12:28:02;8.18;;;4.07;;
50781;SDS011;36749;37.428;-121.972;2023-12-07T12:30:30;9.52;;;3.40;;
50781;SDS011;36749;37.428;-121.972;2023-12-07T12:32:57;12.68;;;3.95;;
50781;SDS011;36749;37.428;-121.972;2023-12-07T12:35:25;10.68;;;3.05;;
50781;SDS011;36749;37.428;-121.972;2023-12-07T12:37:51;10.35;;;3.72;;
50781;SDS011;36749;37.428;-121.972;2023-12-07T12:40:20;13.68;;;3.83;;
50781;SDS011;36749;37.428;-121.972;2023-12-07T12:42:50;11.23;;;4.10;;
50781;SDS011;36749;37.428;-121.972;2023-12-07T12:45:18;10.25;;;3.97;;
50781;SDS011;36749;37.428;-121.972;2023-12-07T12:47:45;14.52;;;4.45;;
50781;SDS011;36749;37.428;-121.972;2023-12-07T12:50:32;18.83;;;4.53;;
50781;SDS011;36749;37.428;-121.972;2023-12-07T12:52:59;12.05;;;4.88;;
50781;SDS011;36749;37.428;-121.972;2023-12-07T12:55:26;20.35;;;5.28;;
50781;SDS011;36749;37.428;-121.972;2023-12-07T12:57:55;10.38;;;3.65;;
50781;SDS011;36749;37.428;-121.972;2023-12-07T13:00:22;12.40;;;4.57;;
50781;SDS011;36749;37.428;-121.972;2023-12-07T13:02:50;13.75;;;4.65;;
50781;SDS011;36749;37.428;-121.972;2023-12-07T13:05:16;13.57;;;5.20;;
50781;SDS011;36749;37.428;-121.972;2023-12-07T13:07:43;21.00;;;4.80;;
50781;SDS011;36749;37.428;-121.972;2023-12-07T13:10:14;14.65;;;4.95;;
50781;SDS011;36749;37.428;-121.972;2023-12-07T13:12:41;10.35;;;4.50;;
50781;SDS011;36749;37.428;-121.972;2023-12-07T13:15:07;12.98;;;4.95;;
50781;SDS011;36749;37.428;-121.972;2023-12-07T13:17:34;14.43;;;5.38;;
50781;SDS011;36749;37.428;-121.972;2023-12-07T13:20:01;11.98;;;4.22;;
50781;SDS011;36749;37.428;-121.972;2023-12-07T13:22:27;11.00;;;4.80;;
50781;SDS011;36749;37.428;-121.972;2023-12-07T13:24:54;10.75;;;4.22;;
50781;SDS011;36749;37.428;-121.972;2023-12-07T13:27:20;13.88;;;4.70;;
50781;SDS011;36749;37.428;-121.972;2023-12-07T13:29:46;12.18;;;4.55;;
50781;SDS011;36749;37.428;-121.972;2023-12-07T13:32:12;12.00;;;5.07;;
50781;SDS011;36749;37.428;-121.972;2023-12-07T13:34:38;11.30;;;4.85;;
50781;SDS011;36749;37.428;-121.972;2023-12-07T13:37:04;12.27;;;3.97;;
50781;SDS011;36749;37.428;-121.972;2023-12-07T13:39:31;12.30;;;5.55;;
50781;SDS011;36749;37.428;-121.972;2023-12-07T13:41:58;15.05;;;5.05;;
50781;SDS011;36749;37.428;-121.972;2023-12-07T13:44:25;16.45;;;5.95;;
50781;SDS011;36749;37.428;-121.972;2023-12-07T13:46:51;22.27;;;5.90;;
50781;SDS011;36749;37.428;-121.972;2023-12-07T13:49:19;14.82;;;4.38;;
50781;SDS011;36749;37.428;-121.972;2023-12-07T13:51:46;11.65;;;4.20;;
50781;SDS011;36749;37.428;-121.972;2023-12-07T13:54:12;13.95;;;4.30;;
50781;SDS011;36749;37.428;-121.972;2023-12-07T13:56:38;10.95;;;4.10;;
50781;SDS011;36749;37.428;-121.972;2023-12-07T13:59:05;8.98;;;3.67;;
50781;SDS011;36749;37.428;-121.972;2023-12-07T14:01:36;6.80;;;3.70;;
50781;SDS011;36749;37.428;-121.972;2023-12-07T14:04:02;10.98;;;4.40;;
50781;SDS011;36749;37.428;-121.972;2023-12-07T14:06:28;9.35;;;3.55;;
50781;SDS011;36749;37.428;-121.972;2023-12-07T14:08:54;10.80;;;4.18;;
50781;SDS011;36749;37.428;-121.972;2023-12-07T14:11:20;9.63;;;4.40;;